KACY/ACY METAR and TAF weather

Enter ICAO airport designator
Station Type Date Time Source
KACY METAR 2021/07/30 05:54 UTC NOAA

KACY 300554Z 25006KT 8SM BKN095 24/23 A2975 RMK AO2 SLP073 T02440233 10250 20244 58009


Station Type Date Time Source
KACY Decoded METAR 2021/07/30 05:54 UTC NOAA

ATLANTIC CITY INTERNATIONAL, NJ, United States (KACY) 39-28N 74-35W 35M
Jul 30, 2021 - 01:54 AM EDT / 2021.07.30 0554 UTC
Wind: from the WSW (250 degrees) at 7 MPH (6 KT):0
Visibility: 8 mile(s):0
Sky conditions: mostly cloudy
Temperature: 75.9 F (24.4 C)
Dew Point: 73.9 F (23.3 C)
Relative Humidity: 93%
Pressure (altimeter): 29.75 in. Hg (1007 hPa)
Pressure tendency: 0.03 inches (0.9 hPa) lower than three hours ago
ob: KACY 300554Z 25006KT 8SM BKN095 24/23 A2975 RMK AO2 SLP073 T02440233 10250 20244 58009
cycle: 6

Station Type Date Time Source
KACY TAF 2021/07/30 06:24 UTC NOAA

TAF KACY 300521Z 3006/3106 26006KT P6SM SCT080
FM301100 31008KT P6SM SCT080
FM301400 31012G20KT P6SM SCT050
FM310100 34006KT P6SM SKC

Example: see airport list